5FD2 weather

Rybovich Heliport
West Palm Beach, Florida, United States

Public forecast

Using degrees Fahrenheit for public forecast. Weather courtesy of forecast.io.

Closest aviation weather report (METAR) to Rybovich Heliport

Closest report is Palm Beach International Airport, 4.7 nm (8.7 km) SSW. Retrieved 2019/10/14 13:53 UTC (54 minutes ago):

KPBI 141353Z 09009KT 10SM SCT022 SCT055 28/23 A3008 RMK AO2 SLP184 T02780228

Closest aviation forecast (TAF) to Rybovich Heliport

Closest forecast is Palm Beach International Airport, 4.7 nm (8.7 km) SSW. Retrieved 2019/10/14 12:26 UTC (2 hours ago):

TAF KPBI 141120Z 1412/1512 07007KT P6SM SCT020 BKN030 FM141500 10011KT P6SM SCT025 BKN035 FM150000 09006KT P6SM FEW030 SCT060